Time;durP1;ratioP1;P1;durP2;ratioP2;P2;SDS_P1;SDS_P2;PMS_P1;PMS_P2;Temp;Humidity;BMP_temperature;BMP_pressure;BME280_temperature;BME280_humidity;BME280_pressure;Samples;Min_cycle;Max_cycle;Signal;HPM_P1;HPM_P2
2022/10/14 00:01:19;;;;;;;18.73;10.25;;;;;;;12.12;100.00;96922.97;4983010;28;20037;-67
2022/10/14 00:03:45;;;;;;;17.20;9.98;;;;;;;12.26;100.00;96921.56;4979022;28;20030;-67
2022/10/14 00:06:16;;;;;;;17.95;10.18;;;;;;;12.32;100.00;96917.34;4982467;28;20054;-67
2022/10/14 00:08:43;;;;;;;16.70;9.65;;;;;;;12.33;100.00;96916.19;4982991;28;20046;-67
2022/10/14 00:11:12;;;;;;;19.17;11.30;;;;;;;12.28;100.00;96922.00;4983678;28;20365;-67
2022/10/14 00:13:38;;;;;;;21.80;10.47;;;;;;;12.17;100.00;96930.09;4980873;28;20030;-68
2022/10/14 00:16:05;;;;;;;19.67;10.15;;;;;;;12.04;100.00;96921.28;4981813;28;20083;-68
2022/10/14 00:18:31;;;;;;;21.33;11.77;;;;;;;11.86;100.00;96921.00;4987597;28;20023;-68
2022/10/14 00:20:58;;;;;;;21.33;10.85;;;;;;;11.78;100.00;96922.84;4985917;28;20045;-68
2022/10/14 00:23:25;;;;;;;22.60;11.77;;;;;;;11.69;100.00;96922.31;4981643;28;20058;-67
2022/10/14 00:25:50;;;;;;;21.45;12.00;;;;;;;11.66;100.00;96921.09;4981971;28;20041;-68
2022/10/14 00:28:16;;;;;;;21.50;11.68;;;;;;;11.68;100.00;96923.47;4980189;28;20447;-67
2022/10/14 00:30:41;;;;;;;21.42;11.73;;;;;;;11.72;100.00;96924.34;4987157;28;20037;-67
2022/10/14 00:33:07;;;;;;;27.85;13.02;;;;;;;11.75;100.00;96922.78;4984983;28;20091;-67
2022/10/14 00:35:32;;;;;;;23.42;13.10;;;;;;;11.74;100.00;96924.75;4980206;28;20031;-67
2022/10/14 00:37:58;;;;;;;21.50;12.23;;;;;;;11.73;100.00;96922.38;4982982;28;20030;-66
2022/10/14 00:40:27;;;;;;;21.55;12.20;;;;;;;11.69;100.00;96922.31;4995308;28;20034;-65
2022/10/14 00:42:52;;;;;;;20.58;11.25;;;;;;;11.73;100.00;96916.88;4983614;28;20049;-66
2022/10/14 00:45:22;;;;;;;25.70;12.75;;;;;;;11.70;100.00;96914.88;4983922;28;20102;-66
2022/10/14 00:47:50;;;;;;;21.95;11.23;;;;;;;11.79;100.00;96920.88;4988567;28;20034;-66
2022/10/14 00:50:16;;;;;;;19.08;11.07;;;;;;;11.92;100.00;96921.50;4983816;28;20034;-66
2022/10/14 00:52:43;;;;;;;21.10;12.27;;;;;;;11.97;100.00;96921.19;4985981;28;20038;-66
2022/10/14 00:55:16;;;;;;;20.80;10.85;;;;;;;12.21;100.00;96912.50;4979834;28;20113;-66
2022/10/14 00:57:42;;;;;;;17.65;10.20;;;;;;;12.32;100.00;96904.41;4984196;28;20200;-67
2022/10/14 01:00:11;;;;;;;26.95;10.75;;;;;;;12.34;100.00;96910.31;4979837;28;20035;-67
2022/10/14 01:02:37;;;;;;;19.98;10.23;;;;;;;12.43;100.00;96910.03;4984928;28;20049;-67
2022/10/14 01:05:05;;;;;;;20.17;9.35;;;;;;;12.30;100.00;96904.00;4980942;28;20022;-67
2022/10/14 01:07:36;;;;;;;19.23;10.88;;;;;;;12.13;100.00;96910.81;4981814;28;20089;-66
2022/10/14 01:10:14;;;;;;;18.42;9.95;;;;;;;11.98;100.00;96911.78;4981704;28;20031;-67
2022/10/14 01:13:04;;;;;;;28.65;13.60;;;;;;;11.73;100.00;96905.91;4981212;28;20026;-67
2022/10/14 01:15:32;;;;;;;;;;;;;;;11.67;100.00;96908.97;4989274;28;20117;-67
2022/10/14 01:18:10;;;;;;;24.30;11.43;;;;;;;11.70;100.00;96901.16;4990422;28;20402;-67
2022/10/14 01:20:59;;;;;;;19.05;10.15;;;;;;;11.76;100.00;96903.22;4982775;28;20050;-67
2022/10/14 01:23:47;;;;;;;23.08;10.20;;;;;;;11.86;100.00;96907.28;4980726;28;20039;-67
2022/10/14 01:26:57;;;;;;;18.55;10.13;;;;;;;11.96;100.00;96909.41;4981896;28;20057;-67
2022/10/14 01:29:59;;;;;;;22.88;10.13;;;;;;;11.92;100.00;96900.34;4984628;28;20038;-66
2022/10/14 01:32:27;;;;;;;16.65;10.20;;;;;;;11.73;100.00;96895.72;4986503;28;20054;-66
2022/10/14 01:35:14;;;;;;;24.98;11.75;;;;;;;11.60;100.00;96899.84;4986266;28;20061;-66
2022/10/14 01:37:46;;;;;;;23.52;11.30;;;;;;;11.52;100.00;96892.66;4981190;28;20030;-66
2022/10/14 01:40:21;;;;;;;23.92;11.88;;;;;;;11.48;100.00;96895.34;4986860;28;20045;-66
2022/10/14 01:42:47;;;;;;;24.52;11.52;;;;;;;11.58;100.00;96891.19;4985827;28;20042;-66
2022/10/14 01:45:22;;;;;;;24.48;12.23;;;;;;;11.58;100.00;96893.94;4983274;28;20030;-66
2022/10/14 01:47:50;;;;;;;31.55;12.90;;;;;;;11.45;100.00;96893.31;4982469;28;20483;-68
2022/10/14 01:50:19;;;;;;;23.38;11.73;;;;;;;11.40;100.00;96877.19;4985684;28;20035;-68
2022/10/14 01:52:57;;;;;;;23.85;12.43;;;;;;;11.37;100.00;96884.19;4982713;28;20466;-68
2022/10/14 01:55:26;;;;;;;24.15;12.70;;;;;;;11.36;100.00;96874.41;4983628;28;20120;-68
2022/10/14 01:57:55;;;;;;;21.55;11.80;;;;;;;11.38;100.00;96885.78;4984163;28;20595;-68
2022/10/14 02:00:21;;;;;;;27.85;11.40;;;;;;;11.44;100.00;96881.56;4987343;28;20483;-68
2022/10/14 02:02:47;;;;;;;18.08;11.50;;;;;;;11.49;100.00;96885.97;4984304;28;20117;-68
2022/10/14 02:05:53;;;;;;;20.10;11.90;;;;;;;11.42;100.00;96880.38;4983112;28;20036;-68
2022/10/14 02:08:53;;;;;;;20.73;11.50;;;;;;;11.37;100.00;96886.16;4889742;29;20132;-68
2022/10/14 02:11:21;;;;;;;24.70;13.50;;;;;;;11.17;100.00;96866.25;4982610;28;20025;-68
2022/10/14 02:14:10;;;;;;;25.42;13.32;;;;;;;11.03;100.00;96866.78;4989225;28;20038;-68
2022/10/14 02:17:10;;;;;;;32.83;14.27;;;;;;;10.96;100.00;96864.72;4988690;28;20030;-67
2022/10/14 02:19:51;;;;;;;26.23;15.05;;;;;;;10.93;100.00;96868.19;4986951;28;20453;-67
2022/10/14 02:22:36;;;;;;;26.90;15.32;;;;;;;10.92;100.00;96863.84;4986721;28;20030;-67
2022/10/14 02:25:08;;;;;;;28.55;15.27;;;;;;;10.88;100.00;96863.00;4982098;28;20038;-67
2022/10/14 02:27:35;;;;;;;36.20;15.60;;;;;;;10.84;100.00;96859.41;4981601;28;20101;-68
2022/10/14 02:30:03;;;;;;;34.03;17.10;;;;;;;10.79;100.00;96862.47;4982742;28;20026;-67
2022/10/14 02:32:30;;;;;;;31.30;16.10;;;;;;;10.76;100.00;96858.47;4983244;28;20030;-67
2022/10/14 02:34:57;;;;;;;29.52;16.65;;;;;;;10.74;100.00;96855.31;4985743;28;20051;-67
2022/10/14 02:37:24;;;;;;;34.78;16.30;;;;;;;10.73;100.00;96858.41;4989110;28;20560;-68
2022/10/14 02:39:56;;;;;;;32.17;17.33;;;;;;;10.72;100.00;96857.63;4986185;28;20030;-68
2022/10/14 02:42:22;;;;;;;36.90;16.20;;;;;;;10.69;100.00;96864.63;4982951;28;20432;-67
2022/10/14 02:44:57;;;;;;;31.90;16.80;;;;;;;10.69;100.00;96869.31;4983617;28;20078;-66
2022/10/14 02:47:23;;;;;;;31.70;16.88;;;;;;;10.70;100.00;96868.94;5003334;28;20077;-67
2022/10/14 02:49:49;;;;;;;30.75;15.25;;;;;;;10.74;100.00;96865.50;4983087;28;20065;-68
2022/10/14 02:52:15;;;;;;;29.15;15.27;;;;;;;10.75;100.00;96867.88;4980635;28;20396;-67
2022/10/14 02:54:40;;;;;;;28.15;14.70;;;;;;;10.74;100.00;96855.31;4984981;28;20027;-67
2022/10/14 02:57:06;;;;;;;22.58;13.45;;;;;;;10.76;100.00;96854.97;4982358;28;20088;-67
2022/10/14 02:59:31;;;;;;;24.17;13.98;;;;;;;10.77;100.00;96851.88;4984709;28;20492;-67
2022/10/14 03:01:57;;;;;;;25.40;13.15;;;;;;;10.78;100.00;96847.16;4981734;28;20099;-67
2022/10/14 03:04:22;;;;;;;41.92;13.80;;;;;;;10.79;100.00;96846.03;4983157;28;20030;-67
2022/10/14 03:06:47;;;;;;;28.95;13.35;;;;;;;10.78;100.00;96839.72;4982857;28;20035;-67
2022/10/14 03:09:13;;;;;;;21.17;11.27;;;;;;;10.78;100.00;96841.69;4982169;28;20399;-67
2022/10/14 03:11:38;;;;;;;20.08;11.63;;;;;;;10.75;100.00;96842.41;4982144;28;20034;-67
2022/10/14 03:14:04;;;;;;;22.02;10.93;;;;;;;10.70;100.00;96840.78;4985010;28;20436;-67
2022/10/14 03:16:29;;;;;;;20.65;11.30;;;;;;;10.65;100.00;96835.59;4987282;28;20089;-67
2022/10/14 03:18:55;;;;;;;18.38;10.00;;;;;;;10.63;100.00;96824.22;4981935;28;20037;-67
2022/10/14 03:21:20;;;;;;;20.50;11.32;;;;;;;10.61;100.00;96829.25;4984978;28;20085;-66
2022/10/14 03:23:45;;;;;;;23.02;11.98;;;;;;;10.59;100.00;96820.59;4983386;28;20030;-66
2022/10/14 03:26:11;;;;;;;20.02;11.57;;;;;;;10.59;100.00;96826.06;4981244;28;20077;-66
2022/10/14 03:28:36;;;;;;;21.50;12.27;;;;;;;10.61;100.00;96832.00;4985374;28;20113;-66
2022/10/14 03:31:02;;;;;;;22.73;11.63;;;;;;;10.62;100.00;96822.63;4985299;28;20148;-66
2022/10/14 03:33:27;;;;;;;23.33;12.32;;;;;;;10.63;100.00;96816.00;4981555;28;20026;-66
2022/10/14 03:35:52;;;;;;;25.23;12.32;;;;;;;10.63;100.00;96824.22;4979456;28;20377;-66
2022/10/14 03:38:18;;;;;;;20.67;12.10;;;;;;;10.62;100.00;96811.66;4981476;28;20085;-66
2022/10/14 03:40:43;;;;;;;21.33;12.13;;;;;;;10.63;100.00;96818.72;4979936;28;20054;-67
2022/10/14 03:43:12;;;;;;;24.63;11.88;;;;;;;10.63;100.00;96813.25;4977625;28;20038;-68
2022/10/14 03:45:37;;;;;;;23.00;11.90;;;;;;;10.62;100.00;96814.41;4990545;28;20038;-67
2022/10/14 03:48:03;;;;;;;25.23;12.30;;;;;;;10.61;100.00;96813.63;4992751;28;20034;-67
2022/10/14 03:50:28;;;;;;;19.48;11.25;;;;;;;10.61;100.00;96819.09;4992048;28;20060;-67
2022/10/14 03:52:54;;;;;;;26.42;11.98;;;;;;;10.63;100.00;96807.78;4992287;28;20034;-67
2022/10/14 03:55:19;;;;;;;20.77;11.95;;;;;;;10.60;100.00;96798.31;4992228;28;20038;-67
2022/10/14 03:57:45;;;;;;;20.10;11.63;;;;;;;10.61;100.00;96799.13;4990277;28;20044;-66
2022/10/14 04:00:11;;;;;;;20.50;11.90;;;;;;;10.59;100.00;96796.75;4992151;28;20085;-67
2022/10/14 04:02:37;;;;;;;19.60;10.98;;;;;;;10.61;100.00;96788.97;4992076;28;20089;-67
2022/10/14 04:05:03;;;;;;;25.27;11.63;;;;;;;10.60;100.00;96790.09;4992185;28;20415;-67
2022/10/14 04:07:29;;;;;;;21.92;11.77;;;;;;;10.64;100.00;96787.44;4991528;28;20399;-67
2022/10/14 04:09:55;;;;;;;18.02;9.98;;;;;;;10.68;100.00;96780.88;4992055;28;20031;-68
2022/10/14 04:12:21;;;;;;;20.73;10.63;;;;;;;10.69;100.00;96787.91;4990481;28;20038;-66
2022/10/14 04:14:47;;;;;;;21.00;10.85;;;;;;;10.69;100.00;96782.44;4991896;28;20088;-66
2022/10/14 04:17:13;;;;;;;18.13;9.57;;;;;;;10.70;100.00;96784.03;4986575;28;20518;-68
2022/10/14 04:19:39;;;;;;;21.13;9.30;;;;;;;10.69;100.00;96779.69;4989438;28;20077;-66
2022/10/14 04:22:04;;;;;;;15.68;8.93;;;;;;;10.68;100.00;96777.34;4989992;28;20510;-67
2022/10/14 04:24:30;;;;;;;15.60;9.32;;;;;;;10.66;100.00;96774.97;4988476;28;20434;-66
2022/10/14 04:26:56;;;;;;;15.40;9.30;;;;;;;10.63;100.00;96775.69;4991372;28;20476;-66
2022/10/14 04:29:21;;;;;;;17.55;9.80;;;;;;;10.62;100.00;96776.84;4991776;28;20077;-67
2022/10/14 04:31:47;;;;;;;15.00;8.60;;;;;;;10.61;100.00;96767.06;4991716;28;20042;-67
2022/10/14 04:34:12;;;;;;;12.95;8.45;;;;;;;10.62;100.00;96773.31;4990350;28;20057;-67
2022/10/14 04:36:38;;;;;;;14.98;8.05;;;;;;;10.64;100.00;96773.72;4990995;28;20088;-65
2022/10/14 04:39:03;;;;;;;13.05;7.75;;;;;;;10.61;100.00;96756.09;4991405;28;20030;-66
2022/10/14 04:41:29;;;;;;;17.55;9.02;;;;;;;10.58;100.00;96762.28;4990576;28;20037;-65
2022/10/14 04:43:54;;;;;;;14.75;9.38;;;;;;;10.56;100.00;96761.09;4991932;28;20038;-66
2022/10/14 04:46:19;;;;;;;16.00;9.30;;;;;;;10.56;100.00;96755.63;4991013;28;20034;-65
2022/10/14 04:48:49;;;;;;;15.40;8.75;;;;;;;10.55;100.00;96759.50;4983047;28;20130;-66
2022/10/14 04:51:14;;;;;;;15.45;9.43;;;;;;;10.55;100.00;96748.53;4991736;28;20038;-65
2022/10/14 04:53:40;;;;;;;13.68;8.40;;;;;;;10.55;100.00;96754.81;5002896;28;20109;-65
2022/10/14 04:56:06;;;;;;;16.58;8.80;;;;;;;10.55;100.00;96754.81;4995360;28;20031;-66
2022/10/14 04:58:31;;;;;;;15.55;8.63;;;;;;;10.58;100.00;96748.59;4991772;28;20053;-66
2022/10/14 05:00:56;;;;;;;13.82;8.30;;;;;;;10.61;100.00;96747.09;4990104;28;20034;-67
2022/10/14 05:03:22;;;;;;;15.65;7.90;;;;;;;10.58;100.00;96743.13;4994145;28;20042;-67
2022/10/14 05:05:49;;;;;;;13.05;8.13;;;;;;;10.57;100.00;96738.81;4994741;28;20483;-66
2022/10/14 05:08:15;;;;;;;19.63;11.88;;;;;;;10.56;100.00;96731.75;4994182;28;20045;-65
2022/10/14 05:10:40;;;;;;;17.90;9.52;;;;;;;10.54;100.00;96733.28;4986070;28;20034;-67
2022/10/14 05:13:06;;;;;;;15.75;8.38;;;;;;;10.56;100.00;96723.53;4995372;28;20046;-67
2022/10/14 05:15:32;;;;;;;14.32;7.82;;;;;;;10.57;100.00;96721.56;4991013;28;20054;-67
2022/10/14 05:17:57;;;;;;;11.93;7.68;;;;;;;10.59;100.00;96722.81;5004061;28;20093;-67
2022/10/14 05:20:23;;;;;;;16.27;7.78;;;;;;;10.57;100.00;96718.84;5001403;28;20031;-68
2022/10/14 05:22:48;;;;;;;13.35;8.18;;;;;;;10.57;100.00;96722.38;4997884;28;20094;-68
2022/10/14 05:25:14;;;;;;;10.98;7.10;;;;;;;10.57;100.00;96725.13;4996788;28;20039;-68
2022/10/14 05:27:39;;;;;;;11.85;7.55;;;;;;;10.55;100.00;96721.16;4994475;28;20034;-68
2022/10/14 05:30:05;;;;;;;13.65;8.40;;;;;;;10.51;100.00;96710.97;4985622;28;20089;-68
2022/10/14 05:32:31;;;;;;;16.27;8.07;;;;;;;10.49;100.00;96709.72;4993961;28;20048;-67
2022/10/14 05:34:56;;;;;;;12.27;7.65;;;;;;;10.50;100.00;96706.63;4994600;28;20487;-67
2022/10/14 05:37:21;;;;;;;11.93;7.57;;;;;;;10.47;100.00;96710.09;4993175;28;20506;-67
2022/10/14 05:39:47;;;;;;;16.13;7.47;;;;;;;10.47;100.00;96701.88;4994697;28;20510;-67
2022/10/14 05:42:12;;;;;;;14.93;7.93;;;;;;;10.47;100.00;96701.09;4994432;28;20045;-67
2022/10/14 05:44:38;;;;;;;13.73;8.05;;;;;;;10.46;100.00;96702.22;4993094;28;20030;-67
2022/10/14 05:47:03;;;;;;;13.52;8.15;;;;;;;10.48;100.00;96692.50;4994020;28;20268;-67
2022/10/14 05:49:28;;;;;;;16.38;8.75;;;;;;;10.49;100.00;96696.81;4994821;28;20032;-67
2022/10/14 05:51:54;;;;;;;14.50;7.47;;;;;;;10.51;100.00;96691.78;4994394;28;20092;-67
2022/10/14 05:54:19;;;;;;;12.93;7.65;;;;;;;10.52;100.00;96687.09;4994854;28;20387;-67
2022/10/14 05:56:45;;;;;;;10.75;7.50;;;;;;;10.59;100.00;96689.13;4989507;28;20042;-67
2022/10/14 05:59:10;;;;;;;11.73;7.40;;;;;;;10.61;100.00;96695.84;4978358;28;20038;-66
2022/10/14 06:01:37;;;;;;;10.95;7.60;;;;;;;10.63;100.00;96690.00;4984869;28;20488;-67
2022/10/14 06:04:03;;;;;;;12.85;6.80;;;;;;;10.68;100.00;96695.97;4984916;28;20081;-66
2022/10/14 06:06:28;;;;;;;11.63;6.43;;;;;;;10.70;100.00;96690.91;4981638;28;20411;-66
2022/10/14 06:08:54;;;;;;;10.45;6.55;;;;;;;10.70;100.00;96685.41;4984724;28;20045;-67
2022/10/14 06:11:20;;;;;;;11.15;6.22;;;;;;;10.70;100.00;96679.94;4978976;28;20062;-65
2022/10/14 06:13:45;;;;;;;16.38;7.40;;;;;;;10.73;100.00;96680.34;4982015;28;20561;-66
2022/10/14 06:16:11;;;;;;;11.20;7.95;;;;;;;10.79;100.00;96682.44;4979792;28;20042;-66
2022/10/14 06:18:37;;;;;;;17.00;6.25;;;;;;;10.90;100.00;96677.88;4985295;28;20048;-66
2022/10/14 06:21:06;;;;;;;12.10;7.53;;;;;;;10.98;100.00;96683.47;4983117;28;20046;-66
2022/10/14 06:23:31;;;;;;;20.83;7.75;;;;;;;11.03;100.00;96683.16;4985281;28;20046;-66
2022/10/14 06:25:57;;;;;;;12.43;6.90;;;;;;;11.07;100.00;96684.00;4981048;28;20069;-67
2022/10/14 06:28:22;;;;;;;11.05;6.55;;;;;;;11.17;100.00;96685.31;4977993;28;20065;-67
2022/10/14 06:30:52;;;;;;;11.05;7.20;;;;;;;11.26;100.00;96681.13;4985000;28;20070;-67
2022/10/14 06:33:18;;;;;;;17.58;10.23;;;;;;;11.52;100.00;96684.97;4978837;28;20041;-67
2022/10/14 06:35:44;;;;;;;17.05;11.85;;;;;;;12.23;100.00;96684.22;4975678;28;20042;-67
2022/10/14 06:38:09;;;;;;;11.85;6.68;;;;;;;12.10;100.00;96691.13;4979140;28;20105;-66
2022/10/14 06:40:35;;;;;;;21.10;11.15;;;;;;;12.00;100.00;96684.38;4983531;28;20112;-67
2022/10/14 06:43:01;;;;;;;12.52;8.80;;;;;;;11.83;100.00;96691.25;4983403;28;20046;-67
2022/10/14 06:45:26;;;;;;;11.90;6.22;;;;;;;11.82;100.00;96684.16;4978355;28;20042;-68
2022/10/14 06:47:52;;;;;;;10.77;5.95;;;;;;;11.63;100.00;96694.16;4983192;28;20101;-66
2022/10/14 06:50:17;;;;;;;10.38;5.53;;;;;;;11.69;100.00;96686.38;4979146;28;20039;-67
2022/10/14 06:52:46;;;;;;;24.25;14.25;;;;;;;11.82;100.00;96689.66;4982115;28;20046;-67
2022/10/14 06:55:13;;;;;;;7.32;5.03;;;;;;;11.87;100.00;96697.56;4978205;28;20035;-65
2022/10/14 06:57:38;;;;;;;7.95;5.00;;;;;;;11.94;100.00;96686.69;4982790;28;20503;-67
2022/10/14 07:00:05;;;;;;;10.75;5.75;;;;;;;11.85;100.00;96694.41;4986742;28;20050;-67
2022/10/14 07:02:30;;;;;;;12.77;6.40;;;;;;;11.80;100.00;96681.00;4991630;28;20434;-66
2022/10/14 07:04:56;;;;;;;11.65;5.57;;;;;;;11.74;100.00;96688.78;4977067;28;20053;-66
2022/10/14 07:07:21;;;;;;;17.08;6.43;;;;;;;11.74;100.00;96686.03;4980644;28;20492;-66
2022/10/14 07:09:47;;;;;;;8.77;5.28;;;;;;;11.82;100.00;96700.63;4985543;28;20123;-65
2022/10/14 07:12:12;;;;;;;10.93;5.57;;;;;;;11.77;100.00;96696.25;4976845;28;20038;-67
2022/10/14 07:14:38;;;;;;;11.73;5.88;;;;;;;11.71;100.00;96699.72;4983831;28;20427;-67
2022/10/14 07:17:03;;;;;;;9.23;6.68;;;;;;;11.75;100.00;96697.78;4977829;28;20046;-65
2022/10/14 07:19:29;;;;;;;17.63;8.20;;;;;;;11.78;100.00;96691.56;4997942;28;20057;-67
2022/10/14 07:21:54;;;;;;;18.75;10.75;;;;;;;11.84;100.00;96693.59;4984058;28;20086;-67
2022/10/14 07:24:19;;;;;;;14.63;9.35;;;;;;;11.83;100.00;96693.97;4977383;28;20400;-67
2022/10/14 07:26:48;;;;;;;10.82;6.13;;;;;;;11.87;100.00;96692.06;4974644;28;20038;-67
2022/10/14 07:29:13;;;;;;;12.43;6.07;;;;;;;11.98;100.00;96697.69;4977306;28;20092;-67
2022/10/14 07:31:39;;;;;;;9.93;5.95;;;;;;;11.97;100.00;96696.09;4983163;28;20050;-65
2022/10/14 07:34:04;;;;;;;12.18;6.32;;;;;;;12.01;100.00;96700.47;4971549;28;20137;-67
2022/10/14 07:36:29;;;;;;;12.57;5.60;;;;;;;12.02;100.00;96702.03;4981868;28;20041;-67
2022/10/14 07:38:55;;;;;;;8.25;4.55;;;;;;;12.01;100.00;96711.47;4983651;28;20076;-67
2022/10/14 07:41:23;;;;;;;9.95;5.18;;;;;;;12.02;100.00;96707.53;4978558;28;20049;-67
2022/10/14 07:43:56;;;;;;;10.70;5.95;;;;;;;12.18;100.00;96710.06;4982883;28;20078;-67
2022/10/14 07:46:31;;;;;;;5.97;4.50;;;;;;;12.36;100.00;96714.94;4978481;28;20050;-67
2022/10/14 07:49:09;;;;;;;6.68;4.82;;;;;;;12.15;100.00;96712.75;4983595;28;20042;-66
2022/10/14 07:51:35;;;;;;;8.25;4.97;;;;;;;12.14;100.00;96711.97;4982893;28;20042;-65
2022/10/14 07:54:03;;;;;;;7.57;5.03;;;;;;;12.17;100.00;96711.25;4982811;28;20571;-66
2022/10/14 07:56:28;;;;;;;9.70;4.60;;;;;;;12.07;100.00;96711.13;4972139;28;20084;-66
2022/10/14 07:58:54;;;;;;;13.10;4.18;;;;;;;12.19;100.00;96710.84;4986629;28;20042;-67
2022/10/14 08:01:20;;;;;;;8.23;5.03;;;;;;;12.29;100.00;96701.94;4983201;28;20158;-67
2022/10/14 08:03:47;;;;;;;6.80;4.18;;;;;;;12.50;100.00;96704.09;4977044;28;20046;-66
2022/10/14 08:06:13;;;;;;;14.00;5.38;;;;;;;12.81;100.00;96702.75;4978296;28;20046;-67
2022/10/14 08:08:39;;;;;;;15.48;6.82;;;;;;;12.81;100.00;96701.97;4981985;28;20050;-67
2022/10/14 08:11:09;;;;;;;14.43;5.80;;;;;;;12.70;100.00;96704.66;4979016;28;20540;-67
2022/10/14 08:13:35;;;;;;;7.10;4.63;;;;;;;12.88;100.00;96709.50;4983497;28;20034;-67
2022/10/14 08:16:01;;;;;;;7.80;4.80;;;;;;;13.31;100.00;96716.09;4982933;28;20034;-67
2022/10/14 08:18:27;;;;;;;8.40;4.70;;;;;;;13.50;100.00;96711.47;4976911;28;20495;-67
2022/10/14 08:20:53;;;;;;;10.07;5.43;;;;;;;13.45;100.00;96709.09;4982489;28;20069;-67
2022/10/14 08:23:19;;;;;;;9.88;3.80;;;;;;;13.24;100.00;96718.78;4978026;28;20390;-67
2022/10/14 08:25:47;;;;;;;8.43;3.25;;;;;;;13.23;100.00;96716.41;4981781;28;20042;-67
2022/10/14 08:28:12;;;;;;;7.50;3.50;;;;;;;13.11;100.00;96714.78;4978153;28;20039;-66
2022/10/14 08:30:37;;;;;;;5.82;3.38;;;;;;;12.95;100.00;96715.03;4984038;28;20101;-67
2022/10/14 08:33:03;;;;;;;9.35;3.97;;;;;;;13.29;100.00;96717.59;4974457;28;20504;-67
2022/10/14 08:35:28;;;;;;;8.27;3.78;;;;;;;13.39;100.00;96711.41;4975295;28;20456;-67
2022/10/14 08:38:01;;;;;;;4.72;3.25;;;;;;;13.68;100.00;96712.34;4984145;28;20045;-68
2022/10/14 08:40:28;;;;;;;6.90;5.18;;;;;;;13.53;100.00;96717.00;4982130;28;20142;-67
2022/10/14 08:43:23;;;;;;;9.65;3.92;;;;;;;13.26;100.00;96719.16;4985889;28;20097;-67
2022/10/14 08:45:57;;;;;;;11.07;5.35;;;;;;;13.14;100.00;96713.97;4985186;28;20050;-67
2022/10/14 08:48:27;;;;;;;10.07;4.88;;;;;;;13.20;100.00;96715.22;4980281;28;20050;-65
2022/10/14 08:51:01;;;;;;;8.95;5.47;;;;;;;13.14;100.00;96717.53;4986657;28;20580;-65
2022/10/14 08:53:37;;;;;;;10.80;6.03;;;;;;;13.10;100.00;96708.47;4984215;28;20078;-66
2022/10/14 08:56:04;;;;;;;27.70;16.85;;;;;;;13.14;100.00;96695.53;4974630;28;20537;-66
2022/10/14 08:58:42;;;;;;;15.98;8.35;;;;;;;13.31;100.00;96705.09;4993663;28;20077;-66
2022/10/14 09:01:32;;;;;;;10.50;4.72;;;;;;;13.43;100.00;96697.69;4979667;28;20038;-67
2022/10/14 09:04:04;;;;;;;6.65;3.17;;;;;;;13.37;100.00;96698.03;4989880;28;20447;-66
2022/10/14 09:06:32;;;;;;;6.97;3.25;;;;;;;13.39;100.00;96698.44;4978708;28;20136;-65
2022/10/14 09:09:27;;;;;;;7.72;3.35;;;;;;;13.38;100.00;96701.59;4989465;28;20075;-68
2022/10/14 09:12:04;;;;;;;7.00;2.90;;;;;;;13.65;100.00;96709.56;4974469;28;20138;-66
2022/10/14 09:14:45;;;;;;;7.75;2.72;;;;;;;13.80;100.00;96713.97;4965232;28;20050;-66
2022/10/14 09:17:10;;;;;;;7.45;3.20;;;;;;;13.71;100.00;96708.03;4962421;28;20039;-67
2022/10/14 09:19:53;;;;;;;7.43;3.17;;;;;;;14.07;100.00;96717.19;4964397;28;20051;-67
2022/10/14 09:22:18;;;;;;;5.95;3.22;;;;;;;13.98;100.00;96714.03;4967517;28;20049;-67
2022/10/14 09:24:47;;;;;;;3.72;2.53;;;;;;;14.07;100.00;96705.41;4978335;28;20046;-67
2022/10/14 09:27:20;;;;;;;8.15;3.38;;;;;;;14.24;100.00;96726.72;4981041;28;20130;-67
2022/10/14 09:29:59;;;;;;;5.53;2.50;;;;;;;14.57;100.00;96724.78;4985483;28;20092;-66
2022/10/14 09:32:38;;;;;;;9.75;2.50;;;;;;;14.66;100.00;96740.97;4981117;28;20065;-68
2022/10/14 09:35:21;;;;;;;8.32;2.50;;;;;;;14.74;100.00;96739.00;4978883;28;20125;-68
2022/10/14 09:37:47;;;;;;;10.88;2.72;;;;;;;14.79;100.00;96733.88;4976527;28;20050;-68
2022/10/14 09:40:12;;;;;;;9.77;3.80;;;;;;;14.81;100.00;96736.25;4975268;28;20051;-67
2022/10/14 09:42:59;;;;;;;14.82;3.35;;;;;;;15.00;100.00;96748.84;4985573;28;20046;-66
2022/10/14 09:45:28;;;;;;;6.13;2.78;;;;;;;14.94;100.00;96744.91;4980866;28;20069;-66
2022/10/14 09:48:06;;;;;;;5.82;2.80;;;;;;;14.70;100.00;96744.50;4967065;28;20050;-67
2022/10/14 09:50:41;;;;;;;7.80;3.00;;;;;;;14.76;100.00;96748.44;4972263;28;20046;-67
2022/10/14 09:53:26;;;;;;;33.17;13.30;;;;;;;14.81;100.00;96745.31;4971797;28;20045;-66
2022/10/14 09:55:58;;;;;;;9.00;4.13;;;;;;;14.87;100.00;96746.50;4984127;28;20396;-67
2022/10/14 09:58:36;;;;;;;8.68;4.00;;;;;;;14.91;100.00;96741.75;4980009;28;20807;-66
2022/10/14 10:01:02;;;;;;;9.02;4.47;;;;;;;15.07;100.00;96746.88;4983262;28;20104;-66
2022/10/14 10:03:34;;;;;;;8.55;3.88;;;;;;;15.21;100.00;96740.53;4974853;28;20057;-66
2022/10/14 10:06:09;;;;;;;7.30;3.60;;;;;;;15.20;100.00;96739.00;4964454;28;20082;-66
2022/10/14 10:08:41;;;;;;;6.40;3.35;;;;;;;15.09;100.00;96735.47;4965440;28;20511;-67
2022/10/14 10:11:12;;;;;;;5.90;3.38;;;;;;;15.06;100.00;96739.78;4960773;28;20061;-66
2022/10/14 10:13:43;;;;;;;9.55;4.38;;;;;;;15.07;100.00;96735.84;4964459;28;20129;-67
2022/10/14 10:16:24;;;;;;;6.85;3.20;;;;;;;15.15;100.00;96733.09;4965993;28;20046;-66
2022/10/14 10:18:51;;;;;;;8.15;3.63;;;;;;;15.25;100.00;96730.31;4985167;28;20120;-66
2022/10/14 10:21:28;;;;;;;12.02;5.00;;;;;;;15.27;100.00;96724.41;4979483;28;20046;-66
2022/10/14 10:24:01;;;;;;;6.97;3.08;;;;;;;14.94;100.00;96729.16;4985086;28;20066;-66
2022/10/14 10:26:32;;;;;;;6.45;3.63;;;;;;;14.78;100.00;96726.78;4979098;28;20066;-66
2022/10/14 10:29:01;;;;;;;9.45;4.78;;;;;;;14.74;100.00;96725.22;4985587;28;20462;-66
2022/10/14 10:32:00;;;;;;;8.98;3.95;;;;;;;14.65;100.00;96723.63;4972100;28;20047;-67
2022/10/14 10:34:44;;;;;;;8.63;4.47;;;;;;;14.53;100.00;96722.03;4973369;28;20096;-66
2022/10/14 10:37:35;;;;;;;12.07;4.43;;;;;;;14.42;100.00;96714.91;4979008;28;20460;-68
2022/10/14 10:40:06;;;;;;;8.13;4.05;;;;;;;14.32;100.00;96714.50;4970229;28;20050;-65
2022/10/14 10:42:50;;;;;;;9.15;3.65;;;;;;;14.35;100.00;96701.94;4967935;28;21943;-66
2022/10/14 10:45:38;;;;;;;11.82;4.43;;;;;;;14.13;100.00;96699.13;4978107;28;20098;-67
2022/10/14 10:48:26;;;;;;;8.18;4.05;;;;;;;14.18;100.00;96702.69;4983157;28;20047;-66
2022/10/14 10:51:37;;;;;;;7.32;3.90;;;;;;;14.06;100.00;96695.56;4983571;28;20042;-67
2022/10/14 10:54:09;;;;;;;7.53;3.30;;;;;;;14.23;100.00;96694.81;4971492;28;20049;-65
2022/10/14 10:56:49;;;;;;;6.47;3.28;;;;;;;14.16;100.00;96697.56;4982317;28;20073;-66
2022/10/14 10:59:14;;;;;;;;;;;;;;;13.51;100.00;96693.81;4979296;28;20046;-66
2022/10/14 11:01:51;;;;;;;12.47;4.83;;;;;;;13.11;100.00;96684.53;4983924;28;19922;-66
2022/10/14 11:04:39;;;;;;;19.08;9.82;;;;;;;13.06;100.00;96679.38;4977867;28;20049;-67
2022/10/14 11:13:37;;;;;;;11.52;5.50;;;;;;;13.26;100.00;96669.66;4960606;28;21862;-67
2022/10/14 11:16:02;;;;;;;8.65;5.63;;;;;;;13.24;100.00;96663.00;4963624;28;20043;-65
2022/10/14 11:18:54;;;;;;;6.22;4.38;;;;;;;13.26;100.00;96655.91;4963907;28;20137;-67
2022/10/14 11:21:32;;;;;;;7.80;4.03;;;;;;;13.54;100.00;96648.97;4966581;28;20391;-68
2022/10/14 11:24:27;;;;;;;6.93;3.80;;;;;;;13.45;100.00;96652.13;4979541;28;20108;-66
2022/10/14 11:27:07;;;;;;;7.57;4.00;;;;;;;13.50;100.00;96650.94;4980696;28;20389;-66
2022/10/14 11:29:36;;;;;;;6.60;3.35;;;;;;;13.38;100.00;96646.59;4982735;28;20104;-66
2022/10/14 11:32:21;;;;;;;6.03;2.95;;;;;;;13.47;100.00;96649.75;4981537;28;20065;-66
2022/10/14 11:34:55;;;;;;;5.97;3.40;;;;;;;13.58;100.00;96650.59;4983630;28;20711;-67
2022/10/14 11:37:50;;;;;;;6.78;3.78;;;;;;;13.84;100.00;96642.41;4977893;28;20050;-66